Time;durP1;ratioP1;P1;durP2;ratioP2;P2;SDS_P1;SDS_P2;PMS_P1;PMS_P2;Temp;Humidity;BMP_temperature;BMP_pressure;BME280_temperature;BME280_humidity;BME280_pressure;Samples;Min_cycle;Max_cycle;Signal;HPM_P1;HPM_P2
2022/12/11 00:01:49;;;;;;;78.47;32.08;;;;;;;1.01;100.00;100961.66;5077269;28;20455;-71
2022/12/11 00:04:14;;;;;;;70.35;30.35;;;;;;;1.01;100.00;100960.81;5073322;28;20052;-70
2022/12/11 00:06:39;;;;;;;73.35;32.33;;;;;;;1.00;100.00;100969.81;5073409;28;20111;-71
2022/12/11 00:09:05;;;;;;;68.82;29.63;;;;;;;1.01;100.00;100956.31;5072070;28;20081;-71
2022/12/11 00:11:30;;;;;;;72.32;30.95;;;;;;;1.05;100.00;100956.84;5082931;28;20183;-69
2022/12/11 00:13:55;;;;;;;72.65;31.13;;;;;;;1.04;100.00;100961.34;5092724;28;20081;-69
2022/12/11 00:16:21;;;;;;;75.43;31.27;;;;;;;1.05;100.00;100951.50;5091243;28;20031;-69
2022/12/11 00:18:46;;;;;;;71.40;30.35;;;;;;;1.05;100.00;100956.84;5073254;28;20341;-70
2022/12/11 00:21:13;;;;;;;69.10;30.33;;;;;;;1.04;100.00;100956.00;5084249;28;20118;-70
2022/12/11 00:23:39;;;;;;;70.70;30.77;;;;;;;1.04;100.00;100956.00;5080255;28;20031;-69
2022/12/11 00:26:06;;;;;;;73.25;30.65;;;;;;;1.05;100.00;100949.66;5072493;28;20108;-70
2022/12/11 00:28:33;;;;;;;67.25;29.60;;;;;;;1.08;100.00;100958.34;5072927;28;20021;-69
2022/12/11 00:30:58;;;;;;;71.28;29.20;;;;;;;1.10;100.00;100957.19;5072608;28;20103;-70
2022/12/11 00:33:25;;;;;;;71.47;28.70;;;;;;;1.13;100.00;100956.84;5072711;28;20032;-70
2022/12/11 00:35:51;;;;;;;72.18;29.65;;;;;;;1.13;100.00;100953.38;5072875;28;20078;-70
2022/12/11 00:38:19;;;;;;;70.97;29.17;;;;;;;1.15;100.00;100962.06;5072751;28;20024;-70
2022/12/11 00:40:44;;;;;;;68.70;31.05;;;;;;;1.14;100.00;100955.88;5080918;28;20031;-69
2022/12/11 00:43:10;;;;;;;64.95;30.17;;;;;;;1.14;100.00;100953.19;5075888;28;20032;-70
2022/12/11 00:45:46;;;;;;;70.28;29.80;;;;;;;1.18;100.00;100962.56;5070051;28;20033;-70
2022/12/11 00:48:12;;;;;;;62.42;28.50;;;;;;;1.15;100.00;100957.53;5071616;28;20028;-70
2022/12/11 00:50:38;;;;;;;66.03;30.63;;;;;;;1.15;100.00;100960.22;5078877;28;20032;-70
2022/12/11 00:53:05;;;;;;;64.43;29.88;;;;;;;1.16;100.00;100958.38;5092369;28;20419;-69
2022/12/11 00:55:31;;;;;;;68.25;29.80;;;;;;;1.16;100.00;100947.72;5092804;28;20024;-70
2022/12/11 00:57:57;;;;;;;71.10;29.45;;;;;;;1.18;100.00;100946.56;5092605;28;20031;-70
2022/12/11 01:00:23;;;;;;;61.67;28.92;;;;;;;1.16;100.00;100943.22;5083059;28;20028;-70
2022/12/11 01:02:49;;;;;;;64.18;30.27;;;;;;;1.17;100.00;100950.22;5079381;28;20616;-70
2022/12/11 01:05:15;;;;;;;56.45;27.50;;;;;;;1.17;100.00;100950.22;5072327;28;20115;-69
2022/12/11 01:07:41;;;;;;;62.28;29.52;;;;;;;1.11;100.00;100944.72;5072524;28;20032;-70
2022/12/11 01:10:24;;;;;;;62.30;29.05;;;;;;;1.07;100.00;100946.84;5073865;28;20352;-70
2022/12/11 01:12:59;;;;;;;56.25;26.77;;;;;;;1.10;100.00;100949.19;5078770;28;20032;-69
2022/12/11 01:15:28;;;;;;;60.83;28.02;;;;;;;1.11;100.00;100948.19;5071761;28;20380;-70
2022/12/11 01:17:54;;;;;;;60.67;26.70;;;;;;;1.13;100.00;100948.84;5070981;28;20475;-69
2022/12/11 01:20:21;;;;;;;54.42;26.50;;;;;;;1.11;100.00;100956.19;5075417;28;20024;-70
2022/12/11 01:22:46;;;;;;;54.67;26.17;;;;;;;1.14;100.00;100955.03;5092326;28;20459;-69
2022/12/11 01:25:12;;;;;;;53.55;25.90;;;;;;;1.13;100.00;100954.19;5092374;28;20031;-70
2022/12/11 01:27:38;;;;;;;55.03;26.85;;;;;;;1.08;100.00;100959.19;5077808;28;20024;-70
2022/12/11 01:30:07;;;;;;;56.38;26.25;;;;;;;1.07;100.00;100960.16;5073256;28;20024;-69
2022/12/11 01:32:33;;;;;;;54.30;26.92;;;;;;;1.06;100.00;100959.34;5078841;28;20025;-69
2022/12/11 01:34:59;;;;;;;54.80;27.20;;;;;;;1.11;100.00;100956.19;5072190;28;20340;-69
2022/12/11 01:37:25;;;;;;;53.08;25.77;;;;;;;1.12;100.00;100957.88;5070788;28;20308;-70
2022/12/11 01:39:50;;;;;;;55.90;26.55;;;;;;;1.16;100.00;100955.72;5070227;28;20028;-69
2022/12/11 01:42:19;;;;;;;54.20;26.23;;;;;;;1.16;100.00;100953.91;5072293;28;20032;-69
2022/12/11 01:44:44;;;;;;;52.90;25.83;;;;;;;1.15;100.00;100946.88;5072199;28;20455;-69
2022/12/11 01:47:10;;;;;;;49.28;25.48;;;;;;;1.14;100.00;100950.53;5071960;28;20150;-69
2022/12/11 01:49:38;;;;;;;47.88;24.95;;;;;;;1.12;100.00;100947.22;5072131;28;20025;-69
2022/12/11 01:52:20;;;;;;;54.67;25.95;;;;;;;1.13;100.00;100940.84;5078602;28;20557;-70
2022/12/11 01:54:46;;;;;;;49.75;25.50;;;;;;;1.12;100.00;100947.22;5071689;28;20024;-69
2022/12/11 01:57:14;;;;;;;49.20;25.88;;;;;;;1.09;100.00;100938.69;5073212;28;20130;-69
2022/12/11 01:59:43;;;;;;;47.40;23.80;;;;;;;1.05;100.00;100936.34;5075664;28;20105;-69
2022/12/11 02:02:17;;;;;;;44.65;24.33;;;;;;;1.07;100.00;100938.84;5070706;28;20024;-70
2022/12/11 02:04:44;;;;;;;49.33;25.27;;;;;;;1.07;100.00;100938.84;5096029;28;20474;-69
2022/12/11 02:07:10;;;;;;;55.40;25.35;;;;;;;1.13;100.00;100938.19;5095898;28;20027;-70
2022/12/11 02:09:39;;;;;;;51.55;24.85;;;;;;;1.13;100.00;100942.69;5090956;28;20028;-69
2022/12/11 02:12:20;;;;;;;50.40;24.92;;;;;;;1.14;100.00;100937.22;5075793;28;20474;-70
2022/12/11 02:15:04;;;;;;;49.20;24.27;;;;;;;1.15;100.00;100933.56;5075186;28;20048;-70
2022/12/11 02:18:01;;;;;;;48.88;23.17;;;;;;;1.18;100.00;100938.56;5074478;28;20020;-70
2022/12/11 02:20:48;;;;;;;48.13;22.73;;;;;;;1.17;100.00;100934.22;5057648;28;20044;-68
2022/12/11 02:23:16;;;;;;;49.20;22.95;;;;;;;1.17;100.00;100942.22;5075302;28;20032;-70
2022/12/11 02:25:55;;;;;;;45.55;23.30;;;;;;;1.19;100.00;100942.06;5075735;28;20402;-69
2022/12/11 02:28:37;;;;;;;44.92;22.38;;;;;;;1.22;100.00;100936.41;5079638;28;20031;-70
2022/12/11 02:31:33;;;;;;;44.65;22.90;;;;;;;1.20;100.00;100928.56;5095516;28;20028;-69
2022/12/11 02:34:06;;;;;;;40.65;21.90;;;;;;;1.18;100.00;100930.56;5090165;28;20040;-69
2022/12/11 02:36:36;;;;;;;48.83;22.90;;;;;;;1.17;100.00;100926.22;5078577;28;20039;-70
2022/12/11 02:39:04;;;;;;;48.42;23.83;;;;;;;1.16;100.00;100931.72;5085359;28;20473;-70
2022/12/11 02:41:31;;;;;;;47.88;22.98;;;;;;;1.19;100.00;100932.25;5054914;28;20349;-70
2022/12/11 02:43:57;;;;;;;44.42;22.23;;;;;;;1.21;100.00;100935.56;5055109;28;20048;-70
2022/12/11 02:46:23;;;;;;;46.50;23.38;;;;;;;1.21;100.00;100929.41;5058521;28;20024;-69
2022/12/11 02:48:51;;;;;;;38.47;21.88;;;;;;;1.21;100.00;100935.56;5083350;28;20028;-71
2022/12/11 02:51:24;;;;;;;38.72;21.90;;;;;;;1.19;100.00;100934.06;5079003;28;20063;-70
2022/12/11 02:53:55;;;;;;;37.85;21.33;;;;;;;1.15;100.00;100936.22;5074531;28;20486;-70
2022/12/11 02:56:28;;;;;;;38.20;21.60;;;;;;;1.11;100.00;100937.53;5074404;28;20036;-70
2022/12/11 02:58:59;;;;;;;35.08;19.38;;;;;;;1.09;100.00;100930.69;5083257;28;20051;-71
2022/12/11 03:01:25;;;;;;;38.25;19.70;;;;;;;1.12;100.00;100930.38;5092481;28;20077;-71
2022/12/11 03:03:51;;;;;;;36.22;20.48;;;;;;;1.14;100.00;100933.72;5095272;28;20031;-70
2022/12/11 03:06:20;;;;;;;36.35;19.90;;;;;;;1.13;100.00;100930.19;5076928;28;20032;-71
2022/12/11 03:08:46;;;;;;;35.20;19.50;;;;;;;1.05;100.00;100924.84;5081714;28;20038;-71
2022/12/11 03:11:12;;;;;;;33.58;19.05;;;;;;;1.03;100.00;100918.84;5094567;28;20024;-71
2022/12/11 03:13:41;;;;;;;32.45;17.67;;;;;;;0.98;100.00;100918.50;5094801;28;20052;-71
2022/12/11 03:16:37;;;;;;;29.55;17.00;;;;;;;0.98;100.00;100921.16;5093218;28;20511;-70
2022/12/11 03:19:23;;;;;;;27.75;16.92;;;;;;;0.93;100.00;100908.31;5075408;28;20052;-70
2022/12/11 03:22:01;;;;;;;26.27;15.70;;;;;;;0.95;100.00;100918.81;5054450;28;20025;-71
2022/12/11 03:24:40;;;;;;;25.48;15.30;;;;;;;0.90;100.00;100923.78;5065925;28;20036;-70
2022/12/11 03:27:26;;;;;;;25.40;14.48;;;;;;;0.87;100.00;100916.94;5074319;28;20035;-70
2022/12/11 03:30:14;;;;;;;27.23;15.60;;;;;;;0.82;100.00;100914.75;5090082;28;20375;-71
2022/12/11 03:32:57;;;;;;;24.65;14.20;;;;;;;0.84;100.00;100906.63;5073819;28;20031;-71
2022/12/11 03:35:30;;;;;;;27.83;15.00;;;;;;;0.82;100.00;100906.78;5073933;28;20020;-71
2022/12/11 03:38:01;;;;;;;28.83;15.35;;;;;;;0.80;100.00;100905.25;5073466;28;20029;-71
2022/12/11 03:40:30;;;;;;;26.05;15.88;;;;;;;0.81;100.00;100910.41;5080068;28;20468;-71
2022/12/11 03:42:57;;;;;;;28.23;15.50;;;;;;;0.80;100.00;100908.78;5073980;28;20025;-71
2022/12/11 03:45:24;;;;;;;23.90;14.65;;;;;;;0.76;100.00;100904.75;5073691;28;20031;-70
2022/12/11 03:47:52;;;;;;;26.17;14.70;;;;;;;0.77;100.00;100901.09;5072098;28;20102;-71
2022/12/11 03:50:21;;;;;;;28.10;15.82;;;;;;;0.78;100.00;100902.75;5081840;28;20020;-70
2022/12/11 03:52:47;;;;;;;26.58;15.25;;;;;;;0.80;100.00;100900.78;5073743;28;20031;-70
2022/12/11 03:55:15;;;;;;;24.13;14.98;;;;;;;0.82;100.00;100896.13;5073246;28;20364;-71
2022/12/11 03:57:41;;;;;;;22.48;14.45;;;;;;;0.83;100.00;100888.94;5073591;28;20068;-70
2022/12/11 04:00:09;;;;;;;22.25;14.48;;;;;;;0.82;100.00;100882.78;5078300;28;20027;-71
2022/12/11 04:02:35;;;;;;;25.80;15.43;;;;;;;0.84;100.00;100885.31;5088613;28;20028;-70
2022/12/11 04:05:00;;;;;;;23.33;14.63;;;;;;;0.86;100.00;100884.16;5093541;28;20059;-71
2022/12/11 04:07:25;;;;;;;24.63;15.40;;;;;;;0.86;100.00;100877.97;5073794;28;20028;-71
2022/12/11 04:09:51;;;;;;;25.50;15.63;;;;;;;0.88;100.00;100887.47;5076070;28;20016;-72
2022/12/11 04:12:16;;;;;;;25.75;15.23;;;;;;;0.90;100.00;100894.50;5092122;28;20359;-70
2022/12/11 04:25:38;;;;;;;26.60;14.75;;;;;;;1.01;100.00;100888.84;5072944;28;20203;-71
2022/12/11 04:28:03;;;;;;;26.50;14.52;;;;;;;0.98;100.00;100886.50;5072835;28;20103;-71
2022/12/11 04:30:28;;;;;;;23.38;14.98;;;;;;;0.99;100.00;100888.19;5079474;28;20411;-71
2022/12/11 04:32:54;;;;;;;25.55;15.38;;;;;;;1.00;100.00;100885.38;5091023;28;20020;-71
2022/12/11 04:35:20;;;;;;;26.38;16.05;;;;;;;1.00;100.00;100885.38;5092930;28;20110;-70
2022/12/11 04:37:45;;;;;;;24.55;15.38;;;;;;;1.01;100.00;100876.38;5088722;28;20110;-71
2022/12/11 04:40:14;;;;;;;27.75;14.90;;;;;;;1.02;100.00;100874.53;5092790;28;20070;-71
2022/12/11 04:42:40;;;;;;;25.60;15.13;;;;;;;1.01;100.00;100875.53;5092871;28;20080;-70
2022/12/11 04:45:07;;;;;;;25.10;15.30;;;;;;;1.02;100.00;100879.88;5093052;28;20024;-71
2022/12/11 04:47:37;;;;;;;24.58;15.63;;;;;;;1.04;100.00;100875.22;5089911;28;20077;-71
2022/12/11 04:50:05;;;;;;;29.98;16.38;;;;;;;1.03;100.00;100874.38;5092957;28;20027;-70
2022/12/11 04:52:30;;;;;;;25.65;15.55;;;;;;;1.05;100.00;100877.72;5072544;28;20032;-70
2022/12/11 04:54:56;;;;;;;26.33;15.93;;;;;;;1.04;100.00;100883.19;5072618;28;20077;-70
2022/12/11 04:57:21;;;;;;;25.85;16.27;;;;;;;1.04;100.00;100875.22;5082123;28;20039;-72
2022/12/11 04:59:47;;;;;;;24.67;16.25;;;;;;;1.05;100.00;100868.88;5089826;28;20352;-70
2022/12/11 05:02:12;;;;;;;27.50;17.25;;;;;;;1.06;100.00;100867.91;5090492;28;20103;-70
2022/12/11 05:04:38;;;;;;;25.38;15.15;;;;;;;1.06;100.00;100862.56;5092561;28;20107;-71
2022/12/11 05:07:03;;;;;;;24.58;14.88;;;;;;;1.04;100.00;100864.53;5089898;28;20051;-71
2022/12/11 05:09:29;;;;;;;22.92;14.98;;;;;;;1.00;100.00;100869.38;5071726;28;20067;-71
2022/12/11 05:11:54;;;;;;;28.65;16.35;;;;;;;0.98;100.00;100870.53;5072756;28;20521;-71
2022/12/11 05:14:20;;;;;;;28.83;16.42;;;;;;;0.98;100.00;100870.53;5072062;28;20048;-71
2022/12/11 05:16:45;;;;;;;25.38;15.63;;;;;;;0.99;100.00;100872.19;5077289;28;20070;-71
2022/12/11 05:19:10;;;;;;;26.90;15.10;;;;;;;0.98;100.00;100860.72;5080766;28;20064;-70
2022/12/11 05:21:36;;;;;;;24.42;15.75;;;;;;;1.05;100.00;100864.38;5071918;28;20046;-71
2022/12/11 05:24:02;;;;;;;26.60;15.30;;;;;;;1.08;100.00;100860.56;5072355;28;20115;-70
2022/12/11 05:26:27;;;;;;;29.98;16.05;;;;;;;1.09;100.00;100864.06;5074185;28;20374;-71
2022/12/11 05:28:54;;;;;;;25.95;15.40;;;;;;;1.11;100.00;100860.25;5076021;28;20029;-71
2022/12/11 05:31:22;;;;;;;24.92;15.60;;;;;;;1.11;100.00;100854.91;5074047;28;20079;-71
2022/12/11 05:33:49;;;;;;;26.10;15.73;;;;;;;1.12;100.00;100853.94;5076306;28;20028;-70
2022/12/11 05:36:26;;;;;;;24.15;15.27;;;;;;;1.16;100.00;100855.28;5075950;28;20508;-70
2022/12/11 05:38:52;;;;;;;23.30;14.77;;;;;;;1.18;100.00;100855.09;5093777;28;20028;-71
2022/12/11 05:41:20;;;;;;;26.63;16.25;;;;;;;1.18;100.00;100858.59;5096579;28;20367;-71
2022/12/11 05:43:46;;;;;;;26.08;15.38;;;;;;;1.15;100.00;100858.94;5079354;28;20039;-70
2022/12/11 05:46:13;;;;;;;24.10;15.63;;;;;;;1.18;100.00;100861.25;5083722;28;20024;-70
2022/12/11 05:48:39;;;;;;;23.58;15.07;;;;;;;1.18;100.00;100860.44;5096177;28;20046;-72
2022/12/11 05:51:05;;;;;;;22.52;14.32;;;;;;;1.18;100.00;100861.25;5096382;28;20074;-71
2022/12/11 05:53:31;;;;;;;24.23;15.38;;;;;;;1.20;100.00;100869.09;5096064;28;20467;-71
2022/12/11 05:56:01;;;;;;;25.35;14.98;;;;;;;1.20;100.00;100864.59;5092682;28;20156;-70
2022/12/11 05:58:27;;;;;;;22.45;13.60;;;;;;;1.19;100.00;100870.09;5096035;28;20055;-71
2022/12/11 06:00:52;;;;;;;23.00;14.27;;;;;;;1.18;100.00;100863.94;5072542;28;20104;-70
2022/12/11 06:03:17;;;;;;;22.33;14.10;;;;;;;1.19;100.00;100865.59;5077289;28;20024;-70
2022/12/11 06:05:43;;;;;;;24.00;14.70;;;;;;;1.21;100.00;100865.44;5093137;28;20028;-70
2022/12/11 06:08:08;;;;;;;23.20;14.93;;;;;;;1.18;100.00;100868.44;5094790;28;20028;-70
2022/12/11 06:10:34;;;;;;;22.95;13.82;;;;;;;1.17;100.00;100864.91;5095779;28;20028;-71
2022/12/11 06:12:59;;;;;;;23.98;14.50;;;;;;;1.21;100.00;100863.59;5088555;28;20501;-71
2022/12/11 06:15:25;;;;;;;24.23;15.02;;;;;;;1.24;100.00;100868.59;5074902;28;20075;-70
2022/12/11 06:17:50;;;;;;;24.42;14.52;;;;;;;1.26;100.00;100867.63;5075335;28;20119;-72
2022/12/11 06:20:16;;;;;;;23.13;14.07;;;;;;;1.26;100.00;100872.94;5073625;28;20070;-71
2022/12/11 06:22:41;;;;;;;24.98;15.63;;;;;;;1.24;100.00;100865.94;5075451;28;20140;-71
2022/12/11 06:25:07;;;;;;;23.60;14.40;;;;;;;1.26;100.00;100863.13;5093266;28;20035;-71
2022/12/11 06:27:32;;;;;;;24.90;16.02;;;;;;;1.27;100.00;100859.47;5092769;28;20024;-71
2022/12/11 06:29:57;;;;;;;24.13;14.52;;;;;;;1.30;100.00;100863.59;5095632;28;20095;-70
2022/12/11 06:32:23;;;;;;;22.65;13.77;;;;;;;1.30;100.00;100858.28;5094218;28;20024;-71
2022/12/11 06:34:48;;;;;;;27.27;14.75;;;;;;;1.32;100.00;100861.63;5083095;28;20433;-71
2022/12/11 06:37:13;;;;;;;25.35;15.00;;;;;;;1.30;100.00;100863.59;5074272;28;20036;-70
2022/12/11 06:39:39;;;;;;;24.65;14.88;;;;;;;1.30;100.00;100858.28;5074994;28;20028;-71
2022/12/11 06:42:04;;;;;;;22.15;14.35;;;;;;;1.32;100.00;100864.28;5074514;28;20028;-71
2022/12/11 06:44:29;;;;;;;24.30;14.90;;;;;;;1.31;100.00;100859.94;5090026;28;20028;-71
2022/12/11 06:46:55;;;;;;;23.38;14.07;;;;;;;1.33;100.00;100863.28;5095296;28;20020;-71
2022/12/11 06:49:20;;;;;;;22.25;14.02;;;;;;;1.31;100.00;100858.09;5095297;28;20040;-71
2022/12/11 06:51:46;;;;;;;23.00;14.65;;;;;;;1.30;100.00;100855.59;5079548;28;20352;-71
2022/12/11 06:54:11;;;;;;;22.45;14.20;;;;;;;1.30;100.00;100853.78;5086859;28;20381;-71
2022/12/11 06:56:36;;;;;;;24.40;14.73;;;;;;;1.30;100.00;100851.13;5094906;28;20024;-71
2022/12/11 06:59:02;;;;;;;22.77;15.32;;;;;;;1.31;100.00;100851.94;5095112;28;20020;-71
2022/12/11 07:01:27;;;;;;;24.90;14.27;;;;;;;1.31;100.00;100855.44;5092777;28;20031;-71
2022/12/11 07:03:54;;;;;;;22.20;14.07;;;;;;;1.33;100.00;100855.28;5091120;28;20106;-70
2022/12/11 07:06:20;;;;;;;22.63;14.40;;;;;;;1.30;100.00;100859.13;5079496;28;20032;-70
2022/12/11 07:08:46;;;;;;;23.00;14.25;;;;;;;1.30;100.00;100864.47;5074455;28;20083;-71
2022/12/11 07:11:14;;;;;;;20.63;13.35;;;;;;;1.29;100.00;100862.78;5074615;28;20444;-70
2022/12/11 07:13:41;;;;;;;22.85;14.70;;;;;;;1.29;100.00;100867.28;5082039;28;20455;-71
2022/12/11 07:16:09;;;;;;;23.40;14.50;;;;;;;1.27;100.00;100870.13;5094677;28;20024;-71
2022/12/11 07:18:37;;;;;;;24.42;14.00;;;;;;;1.28;100.00;100870.94;5094496;28;20016;-72
2022/12/11 07:21:02;;;;;;;26.33;15.02;;;;;;;1.27;100.00;100874.59;5079959;28;20423;-71
2022/12/11 07:23:28;;;;;;;24.33;15.55;;;;;;;1.28;100.00;100876.28;5079999;28;20106;-71
2022/12/11 07:25:55;;;;;;;24.55;14.73;;;;;;;1.27;100.00;100882.59;5094571;28;20107;-71
2022/12/11 07:28:20;;;;;;;23.45;14.70;;;;;;;1.26;100.00;100887.09;5094816;28;20348;-71
2022/12/11 07:30:46;;;;;;;24.73;14.57;;;;;;;1.26;100.00;100881.78;5094269;28;20023;-71
2022/12/11 07:33:11;;;;;;;24.95;15.48;;;;;;;1.29;100.00;100886.78;5091162;28;20031;-72
2022/12/11 07:35:36;;;;;;;25.23;14.63;;;;;;;1.31;100.00;100883.94;5080850;28;20028;-71
2022/12/11 07:38:02;;;;;;;25.60;15.70;;;;;;;1.33;100.00;100885.47;5073143;28;20020;-71
2022/12/11 07:40:27;;;;;;;24.00;15.07;;;;;;;1.32;100.00;100880.28;5073861;28;20028;-71
2022/12/11 07:42:52;;;;;;;23.35;15.07;;;;;;;1.34;100.00;100883.63;5074395;28;20051;-71
2022/12/11 07:45:18;;;;;;;24.52;14.65;;;;;;;1.35;100.00;100878.13;5093014;28;20441;-71
2022/12/11 07:47:43;;;;;;;24.58;14.88;;;;;;;1.37;100.00;100877.97;5094018;28;20024;-71
2022/12/11 07:50:09;;;;;;;25.70;14.77;;;;;;;1.37;100.00;100883.28;5094192;28;20085;-70
2022/12/11 07:52:34;;;;;;;25.73;15.00;;;;;;;1.39;100.00;100874.13;5077566;28;20028;-71
2022/12/11 07:54:59;;;;;;;27.80;15.73;;;;;;;1.40;100.00;100877.63;5091754;28;20611;-70
2022/12/11 07:57:26;;;;;;;24.23;15.38;;;;;;;1.41;100.00;100888.13;5093922;28;20020;-71
2022/12/11 07:59:51;;;;;;;29.10;16.05;;;;;;;1.41;100.00;100882.78;5093665;28;20106;-70
2022/12/11 08:02:17;;;;;;;27.08;15.93;;;;;;;1.39;100.00;100886.66;5091492;28;20454;-71
2022/12/11 08:04:42;;;;;;;26.15;14.82;;;;;;;1.40;100.00;100877.63;5089992;28;20053;-71
2022/12/11 08:07:07;;;;;;;24.92;15.75;;;;;;;1.37;100.00;100873.44;5080314;28;20033;-70
2022/12/11 08:09:33;;;;;;;27.98;16.58;;;;;;;1.37;100.00;100869.97;5073237;28;20090;-71
2022/12/11 08:11:58;;;;;;;25.98;15.55;;;;;;;1.39;100.00;100878.66;5073433;28;20025;-71
2022/12/11 08:14:23;;;;;;;27.38;16.35;;;;;;;1.41;100.00;100880.13;5085483;28;20109;-71
2022/12/11 08:16:49;;;;;;;27.98;16.17;;;;;;;1.41;100.00;100880.13;5093501;28;20269;-70
2022/12/11 08:19:14;;;;;;;26.25;16.63;;;;;;;1.42;100.00;100884.47;5093516;28;20055;-71
2022/12/11 08:21:40;;;;;;;31.23;17.75;;;;;;;1.43;100.00;100879.97;5081432;28;20028;-71
2022/12/11 08:24:06;;;;;;;27.35;17.10;;;;;;;1.43;100.00;100885.28;5082307;28;20020;-70
2022/12/11 08:26:32;;;;;;;28.38;16.38;;;;;;;1.45;100.00;100879.78;5093186;28;20042;-70
2022/12/11 08:28:59;;;;;;;25.98;16.45;;;;;;;1.42;100.00;100879.13;5093403;28;20450;-71
2022/12/11 08:31:25;;;;;;;27.90;16.35;;;;;;;1.46;100.00;100884.97;5093200;28;20035;-71
2022/12/11 08:33:51;;;;;;;29.08;16.05;;;;;;;1.46;100.00;100887.63;5090181;28;20044;-71
2022/12/11 08:36:19;;;;;;;28.90;16.58;;;;;;;1.47;100.00;100880.50;5082568;28;20051;-71
2022/12/11 08:38:45;;;;;;;28.88;16.25;;;;;;;1.50;100.00;100883.66;5072635;28;20020;-71
2022/12/11 08:41:32;;;;;;;28.63;16.90;;;;;;;1.50;100.00;100886.31;5072866;28;20035;-71
2022/12/11 08:43:59;;;;;;;28.50;16.33;;;;;;;1.53;100.00;100879.81;5080663;28;20375;-70
2022/12/11 08:46:27;;;;;;;30.23;18.08;;;;;;;1.52;100.00;100883.47;5093060;28;20028;-71
2022/12/11 08:48:53;;;;;;;31.00;17.92;;;;;;;1.53;100.00;100880.66;5093101;28;20115;-71
2022/12/11 08:51:22;;;;;;;27.52;16.45;;;;;;;1.50;100.00;100880.97;5078738;28;20016;-70
2022/12/11 08:53:48;;;;;;;27.60;16.33;;;;;;;1.51;100.00;100874.66;5078932;28;20028;-72
2022/12/11 08:56:17;;;;;;;26.80;16.05;;;;;;;1.52;100.00;100867.47;5092859;28;20023;-71
2022/12/11 08:58:43;;;;;;;27.63;15.93;;;;;;;1.52;100.00;100878.97;5088200;28;20027;-70
2022/12/11 09:01:15;;;;;;;25.50;16.23;;;;;;;1.52;100.00;100878.97;5066230;28;20477;-71
2022/12/11 09:03:41;;;;;;;27.08;15.70;;;;;;;1.51;100.00;100874.66;5091568;28;20031;-71
2022/12/11 09:06:09;;;;;;;28.17;16.80;;;;;;;1.47;100.00;100883.97;5092515;28;20031;-71
2022/12/11 09:08:35;;;;;;;27.98;16.45;;;;;;;1.47;100.00;100870.66;5068774;28;20024;-71
2022/12/11 09:11:09;;;;;;;27.08;16.50;;;;;;;1.47;100.00;100867.16;5071229;28;20092;-71
2022/12/11 09:13:36;;;;;;;28.30;15.60;;;;;;;1.48;100.00;100872.31;5088464;28;20108;-70
2022/12/11 09:16:05;;;;;;;29.27;16.17;;;;;;;1.47;100.00;100878.66;5092070;28;20190;-71
2022/12/11 09:18:30;;;;;;;29.35;15.30;;;;;;;1.48;100.00;100867.00;5091356;28;20038;-70
2022/12/11 09:21:04;;;;;;;27.00;14.30;;;;;;;1.51;100.00;100872.00;5092080;28;20099;-70
2022/12/11 09:23:30;;;;;;;35.60;15.93;;;;;;;1.53;100.00;100872.66;5089731;28;20031;-71
2022/12/11 09:25:55;;;;;;;28.15;16.23;;;;;;;1.50;100.00;100869.50;5078332;28;20029;-71
2022/12/11 09:28:21;;;;;;;27.35;16.23;;;;;;;1.46;100.00;100870.81;5072345;28;20028;-72
2022/12/11 09:30:47;;;;;;;29.55;16.23;;;;;;;1.45;100.00;100875.31;5071658;28;20044;-72
2022/12/11 09:33:12;;;;;;;28.38;16.08;;;;;;;1.44;100.00;100873.63;5092502;28;20027;-73
2022/12/11 09:35:37;;;;;;;28.95;16.83;;;;;;;1.45;100.00;100864.66;5092230;28;20514;-73
2022/12/11 09:38:03;;;;;;;27.38;16.38;;;;;;;1.48;100.00;100861.66;5077778;28;20039;-71
2022/12/11 09:40:28;;;;;;;27.85;15.60;;;;;;;1.50;100.00;100872.16;5089447;28;20085;-72
2022/12/11 09:43:35;;;;;;;30.30;16.83;;;;;;;1.53;100.00;100869.97;5080939;28;20074;-76
2022/12/11 09:46:04;;;;;;;27.80;16.08;;;;;;;1.46;100.00;100868.97;5072238;28;20052;-74
2022/12/11 09:48:33;;;;;;;27.50;16.00;;;;;;;1.46;100.00;100866.31;5074374;28;20024;-73
2022/12/11 09:51:33;;;;;;;28.63;17.00;;;;;;;1.49;100.00;100867.81;5092308;28;20425;-75
2022/12/11 09:54:02;;;;;;;29.80;16.55;;;;;;;1.55;100.00;100856.47;5071256;28;20032;-72
2022/12/11 09:56:32;;;;;;;28.90;16.58;;;;;;;1.61;100.00;100855.00;5088182;28;20035;-73
2022/12/11 09:59:09;;;;;;;30.77;17.38;;;;;;;1.58;100.00;100856.97;5087500;28;20017;-75
2022/12/11 10:01:53;;;;;;;30.08;16.17;;;;;;;1.56;100.00;100848.31;5060223;28;20428;-74
2022/12/11 10:04:46;;;;;;;29.23;16.35;;;;;;;1.57;100.00;100858.00;5062634;28;20021;-77
2022/12/11 10:07:29;;;;;;;26.13;15.30;;;;;;;1.55;100.00;100861.81;5070670;28;20063;-76
2022/12/11 10:09:58;;;;;;;27.45;15.23;;;;;;;1.54;100.00;100854.81;5085478;28;20073;-74
2022/12/11 10:12:41;;;;;;;29.58;16.50;;;;;;;1.56;100.00;100856.31;5092134;28;20032;-74
2022/12/11 10:15:36;;;;;;;24.85;14.68;;;;;;;1.54;100.00;100854.81;5091742;28;20052;-75
2022/12/11 10:18:04;;;;;;;25.92;13.93;;;;;;;1.54;100.00;100855.66;5084032;28;20032;-75
2022/12/11 10:20:35;;;;;;;28.10;16.48;;;;;;;1.49;100.00;100855.31;5070419;28;20043;-73
2022/12/11 10:23:02;;;;;;;28.67;15.82;;;;;;;1.52;100.00;100864.81;5066701;28;20025;-73
2022/12/11 10:25:33;;;;;;;27.58;15.20;;;;;;;1.53;100.00;100853.97;5075578;28;20091;-76
2022/12/11 10:28:07;;;;;;;27.88;15.43;;;;;;;1.53;100.00;100861.97;5075191;28;20024;-78
2022/12/11 10:30:36;;;;;;;28.13;14.95;;;;;;;1.58;100.00;100850.81;5054192;28;20487;-77
2022/12/11 10:33:22;;;;;;;26.73;15.27;;;;;;;1.62;100.00;100854.81;5055361;28;20101;-78
2022/12/11 10:35:52;;;;;;;29.65;15.55;;;;;;;1.66;100.00;100849.97;5055088;28;20521;-78
2022/12/11 10:38:27;;;;;;;25.88;15.13;;;;;;;1.68;100.00;100856.00;5070782;28;20171;-75
2022/12/11 10:40:59;;;;;;;25.63;14.90;;;;;;;1.69;100.00;100852.31;5093780;28;20059;-74
2022/12/11 10:43:45;;;;;;;25.33;15.05;;;;;;;1.69;100.00;100844.31;5086407;28;20059;-75
2022/12/11 10:46:16;;;;;;;30.50;16.08;;;;;;;1.67;100.00;100849.00;5075841;28;20020;-75
2022/12/11 10:49:00;;;;;;;30.92;15.88;;;;;;;1.67;100.00;100846.31;5095146;28;20055;-76
2022/12/11 10:51:29;;;;;;;29.45;15.82;;;;;;;1.66;100.00;100841.97;5091027;28;20058;-74
2022/12/11 10:54:00;;;;;;;27.40;16.70;;;;;;;1.63;100.00;100839.66;5094139;28;20024;-74
2022/12/11 10:56:28;;;;;;;25.75;15.05;;;;;;;1.60;100.00;100827.47;5086159;28;20053;-73
2022/12/11 10:58:54;;;;;;;29.38;16.52;;;;;;;1.61;100.00;100829.13;5094933;28;20035;-74
2022/12/11 11:01:22;;;;;;;28.98;15.82;;;;;;;1.60;100.00;100822.13;5085293;28;20478;-73
2022/12/11 11:03:52;;;;;;;27.23;15.73;;;;;;;1.62;100.00;100827.31;5094649;28;20032;-72
2022/12/11 11:06:20;;;;;;;28.77;16.67;;;;;;;1.67;100.00;100830.31;5095317;28;20444;-72
2022/12/11 11:08:48;;;;;;;28.98;17.33;;;;;;;1.69;100.00;100830.97;5094797;28;20059;-73
